Portada
METAR-TAF:

METAR-TAF

Aeroports :

Aeroport de Rabat

Rabat, Marroc

latitud: 34-03N, longitud: 006-46W, altitud: 84 m

Observació

L'informe es va fer fa 37 minuts, a les 13:00 UTC
Vent 7 kt del Nord-Oest, variant entre Oest i Nord
Temperatura 24°C
Humitat 65%
Pressió 1016 hPa
Visibilitat: 6000 m

METAR: GMME 191300Z 32007KT 280V010 6000 NSC 24/17 Q1016 NOSIG

Hora: 14:37 (13:37 UTC)

Pronòstic

L'informe es va fer fa 2 hores i 37 minuts, a les 11:00 UTC
Pronòstic vàlid del 19 a les 12 UTC al 20 a les 18 UTC
Vent 10 kt del Nord-Oest
Visibilitat: 6000 m
Temporalment
l' 20 a les 00 UTC al 20 a les 06 UTC
Vent 8 kt del Sud-Oest
Cel ennuvolat a una alçada de 1000 ft
Núvols disperses a una alçada de 1500 ft

TAF: GMME 191100Z 1912/2018 32010KT 6000 NSC TEMPO 2000/2006 22008KT BKN010 SCT015

Observacions i pronòstics meteorològics de més de 4000 aeroports (METAR i TAF).

Les estacions disponibles són els punts grocs i vermells al mapa.

Posi el ratolí al punt desitjat per veure el nom de l'estació.

Feu clic per veure les observacions i els pronòstics meteorològics.

Per canviar el mapa: feu clic els botons verds amb una creu de color negre per apropar; al botó verd amb un guió per allunyar la imatge; o en les fletxes verdes per a mapes adjacents.


METAR-TAF: